sensor_id;sensor_type;location;lat;lon;timestamp;temperature;humidity
12384;DHT22;6256;63.808;20.336;2022-10-16T00:02:00;4.70;99.90
12384;DHT22;6256;63.808;20.336;2022-10-16T00:04:25;4.70;99.90
12384;DHT22;6256;63.808;20.336;2022-10-16T00:06:51;4.70;99.90
12384;DHT22;6256;63.808;20.336;2022-10-16T00:09:17;4.80;99.90
12384;DHT22;6256;63.808;20.336;2022-10-16T00:11:42;4.80;99.90
12384;DHT22;6256;63.808;20.336;2022-10-16T00:14:13;4.80;99.90
12384;DHT22;6256;63.808;20.336;2022-10-16T00:16:40;4.80;99.90
12384;DHT22;6256;63.808;20.336;2022-10-16T00:19:06;4.80;99.90
12384;DHT22;6256;63.808;20.336;2022-10-16T00:21:33;4.80;99.90
12384;DHT22;6256;63.808;20.336;2022-10-16T00:24:05;4.70;99.90
12384;DHT22;6256;63.808;20.336;2022-10-16T00:26:33;4.60;99.90
12384;DHT22;6256;63.808;20.336;2022-10-16T00:28:59;4.60;99.90
12384;DHT22;6256;63.808;20.336;2022-10-16T00:31:25;4.60;99.90
12384;DHT22;6256;63.808;20.336;2022-10-16T00:33:51;4.50;99.90
12384;DHT22;6256;63.808;20.336;2022-10-16T00:36:20;4.50;99.90
12384;DHT22;6256;63.808;20.336;2022-10-16T00:38:46;4.60;99.90
12384;DHT22;6256;63.808;20.336;2022-10-16T00:41:15;4.50;99.90
12384;DHT22;6256;63.808;20.336;2022-10-16T00:51:36;4.10;99.90
12384;DHT22;6256;63.808;20.336;2022-10-16T00:54:06;4.10;99.90
12384;DHT22;6256;63.808;20.336;2022-10-16T00:56:33;4.00;99.90
12384;DHT22;6256;63.808;20.336;2022-10-16T00:59:01;4.00;99.90
12384;DHT22;6256;63.808;20.336;2022-10-16T01:01:27;4.00;99.90
12384;DHT22;6256;63.808;20.336;2022-10-16T01:03:53;3.90;99.90
12384;DHT22;6256;63.808;20.336;2022-10-16T01:11:54;3.70;99.90
12384;DHT22;6256;63.808;20.336;2022-10-16T01:28:39;3.30;99.90
12384;DHT22;6256;63.808;20.336;2022-10-16T01:31:05;3.30;99.90
12384;DHT22;6256;63.808;20.336;2022-10-16T01:33:41;3.20;99.90
12384;DHT22;6256;63.808;20.336;2022-10-16T01:36:29;3.20;99.90
12384;DHT22;6256;63.808;20.336;2022-10-16T01:41:30;3.00;99.90
12384;DHT22;6256;63.808;20.336;2022-10-16T01:44:11;3.00;99.90
12384;DHT22;6256;63.808;20.336;2022-10-16T01:46:42;2.90;99.90
12384;DHT22;6256;63.808;20.336;2022-10-16T01:49:09;2.90;99.90
12384;DHT22;6256;63.808;20.336;2022-10-16T01:51:37;2.80;99.90
12384;DHT22;6256;63.808;20.336;2022-10-16T01:54:05;2.80;99.90
12384;DHT22;6256;63.808;20.336;2022-10-16T01:59:04;2.60;99.90
12384;DHT22;6256;63.808;20.336;2022-10-16T02:01:39;2.60;99.90
12384;DHT22;6256;63.808;20.336;2022-10-16T02:04:16;2.50;99.90
12384;DHT22;6256;63.808;20.336;2022-10-16T02:06:42;2.50;99.90
12384;DHT22;6256;63.808;20.336;2022-10-16T02:09:08;2.40;99.90
12384;DHT22;6256;63.808;20.336;2022-10-16T02:11:34;2.40;99.90
12384;DHT22;6256;63.808;20.336;2022-10-16T02:14:05;2.40;99.90
12384;DHT22;6256;63.808;20.336;2022-10-16T02:16:40;2.30;99.90
12384;DHT22;6256;63.808;20.336;2022-10-16T02:19:07;2.30;99.90
12384;DHT22;6256;63.808;20.336;2022-10-16T02:21:43;2.20;99.90
12384;DHT22;6256;63.808;20.336;2022-10-16T02:27:11;2.10;99.90
12384;DHT22;6256;63.808;20.336;2022-10-16T02:29:42;2.10;99.90
12384;DHT22;6256;63.808;20.336;2022-10-16T02:32:12;2.10;99.90
12384;DHT22;6256;63.808;20.336;2022-10-16T02:34:39;2.10;99.90
12384;DHT22;6256;63.808;20.336;2022-10-16T02:37:06;2.00;99.90
12384;DHT22;6256;63.808;20.336;2022-10-16T02:39:33;2.00;99.90
12384;DHT22;6256;63.808;20.336;2022-10-16T02:41:59;2.00;99.90
12384;DHT22;6256;63.808;20.336;2022-10-16T02:44:25;1.90;99.90
12384;DHT22;6256;63.808;20.336;2022-10-16T02:46:51;1.90;99.90
12384;DHT22;6256;63.808;20.336;2022-10-16T02:49:17;1.80;99.90
12384;DHT22;6256;63.808;20.336;2022-10-16T02:51:43;1.80;99.90
12384;DHT22;6256;63.808;20.336;2022-10-16T02:54:09;1.80;99.90
12384;DHT22;6256;63.808;20.336;2022-10-16T02:56:34;1.80;99.90
12384;DHT22;6256;63.808;20.336;2022-10-16T02:59:00;1.80;99.90
12384;DHT22;6256;63.808;20.336;2022-10-16T03:01:26;1.70;99.90
12384;DHT22;6256;63.808;20.336;2022-10-16T03:03:51;1.80;99.90
12384;DHT22;6256;63.808;20.336;2022-10-16T03:06:17;1.70;99.90
12384;DHT22;6256;63.808;20.336;2022-10-16T03:08:43;1.70;99.90
12384;DHT22;6256;63.808;20.336;2022-10-16T03:11:09;1.70;99.90
12384;DHT22;6256;63.808;20.336;2022-10-16T03:13:34;1.70;99.90
12384;DHT22;6256;63.808;20.336;2022-10-16T03:16:04;1.70;99.90
12384;DHT22;6256;63.808;20.336;2022-10-16T03:18:30;1.70;99.90
12384;DHT22;6256;63.808;20.336;2022-10-16T03:23:21;1.60;99.90
12384;DHT22;6256;63.808;20.336;2022-10-16T03:25:47;1.60;99.90
12384;DHT22;6256;63.808;20.336;2022-10-16T03:28:13;1.60;99.90
12384;DHT22;6256;63.808;20.336;2022-10-16T03:30:39;1.50;99.90
12384;DHT22;6256;63.808;20.336;2022-10-16T03:33:05;1.50;99.90
12384;DHT22;6256;63.808;20.336;2022-10-16T03:35:32;1.50;99.90
12384;DHT22;6256;63.808;20.336;2022-10-16T03:37:58;1.40;99.90
12384;DHT22;6256;63.808;20.336;2022-10-16T03:40:24;1.40;99.90
12384;DHT22;6256;63.808;20.336;2022-10-16T03:42:50;1.40;99.90
12384;DHT22;6256;63.808;20.336;2022-10-16T03:45:15;1.40;99.90
12384;DHT22;6256;63.808;20.336;2022-10-16T03:47:41;1.40;99.90
12384;DHT22;6256;63.808;20.336;2022-10-16T03:50:07;1.40;99.90
12384;DHT22;6256;63.808;20.336;2022-10-16T03:52:33;1.40;99.90
12384;DHT22;6256;63.808;20.336;2022-10-16T03:54:59;1.40;99.90
12384;DHT22;6256;63.808;20.336;2022-10-16T03:57:24;1.40;99.90
12384;DHT22;6256;63.808;20.336;2022-10-16T03:59:50;1.40;99.90
12384;DHT22;6256;63.808;20.336;2022-10-16T04:02:16;1.50;99.90
12384;DHT22;6256;63.808;20.336;2022-10-16T04:04:42;1.60;99.90
12384;DHT22;6256;63.808;20.336;2022-10-16T04:07:07;1.80;99.90
12384;DHT22;6256;63.808;20.336;2022-10-16T04:09:33;1.80;99.90
12384;DHT22;6256;63.808;20.336;2022-10-16T04:11:59;1.80;99.90
12384;DHT22;6256;63.808;20.336;2022-10-16T04:14:25;1.90;99.90
12384;DHT22;6256;63.808;20.336;2022-10-16T04:16:50;1.90;99.90
12384;DHT22;6256;63.808;20.336;2022-10-16T04:19:16;2.00;99.90
12384;DHT22;6256;63.808;20.336;2022-10-16T04:21:42;2.00;99.90
12384;DHT22;6256;63.808;20.336;2022-10-16T04:24:07;2.10;99.90
12384;DHT22;6256;63.808;20.336;2022-10-16T04:26:33;2.20;99.90
12384;DHT22;6256;63.808;20.336;2022-10-16T04:28:59;2.30;99.90
12384;DHT22;6256;63.808;20.336;2022-10-16T04:31:24;2.40;99.90
12384;DHT22;6256;63.808;20.336;2022-10-16T04:33:50;2.40;99.90
12384;DHT22;6256;63.808;20.336;2022-10-16T04:36:16;2.50;99.90
12384;DHT22;6256;63.808;20.336;2022-10-16T04:38:41;2.60;99.90
12384;DHT22;6256;63.808;20.336;2022-10-16T04:41:07;2.70;99.90
12384;DHT22;6256;63.808;20.336;2022-10-16T04:43:34;2.80;99.90
12384;DHT22;6256;63.808;20.336;2022-10-16T04:46:00;2.80;99.90
12384;DHT22;6256;63.808;20.336;2022-10-16T04:48:26;2.90;99.90
12384;DHT22;6256;63.808;20.336;2022-10-16T04:50:52;3.00;99.90
12384;DHT22;6256;63.808;20.336;2022-10-16T04:53:17;3.00;99.90
12384;DHT22;6256;63.808;20.336;2022-10-16T04:55:43;3.10;99.90
12384;DHT22;6256;63.808;20.336;2022-10-16T04:58:09;3.20;99.90
12384;DHT22;6256;63.808;20.336;2022-10-16T05:00:35;3.20;99.90
12384;DHT22;6256;63.808;20.336;2022-10-16T05:03:04;3.30;99.90
12384;DHT22;6256;63.808;20.336;2022-10-16T05:05:33;3.40;99.90
12384;DHT22;6256;63.808;20.336;2022-10-16T05:07:58;3.40;99.90
12384;DHT22;6256;63.808;20.336;2022-10-16T05:10:24;3.50;99.90
12384;DHT22;6256;63.808;20.336;2022-10-16T05:12:50;3.50;99.90
12384;DHT22;6256;63.808;20.336;2022-10-16T05:15:17;3.40;99.90
12384;DHT22;6256;63.808;20.336;2022-10-16T05:17:42;3.40;99.90
12384;DHT22;6256;63.808;20.336;2022-10-16T05:20:08;3.50;99.90
12384;DHT22;6256;63.808;20.336;2022-10-16T05:22:34;3.50;99.90
12384;DHT22;6256;63.808;20.336;2022-10-16T05:25:00;3.50;99.90
12384;DHT22;6256;63.808;20.336;2022-10-16T05:27:25;3.50;99.90
12384;DHT22;6256;63.808;20.336;2022-10-16T05:29:51;3.60;99.90
12384;DHT22;6256;63.808;20.336;2022-10-16T05:32:18;3.60;99.90
12384;DHT22;6256;63.808;20.336;2022-10-16T05:34:44;3.70;99.90
12384;DHT22;6256;63.808;20.336;2022-10-16T05:37:11;3.80;99.90
12384;DHT22;6256;63.808;20.336;2022-10-16T05:39:37;3.80;99.90
12384;DHT22;6256;63.808;20.336;2022-10-16T05:42:04;3.90;99.90
12384;DHT22;6256;63.808;20.336;2022-10-16T05:46:55;4.00;99.90
12384;DHT22;6256;63.808;20.336;2022-10-16T05:49:21;4.10;99.90
12384;DHT22;6256;63.808;20.336;2022-10-16T05:51:47;4.10;99.90
12384;DHT22;6256;63.808;20.336;2022-10-16T05:54:12;4.10;99.90
12384;DHT22;6256;63.808;20.336;2022-10-16T05:56:38;4.20;99.90
12384;DHT22;6256;63.808;20.336;2022-10-16T05:59:04;4.20;99.90
12384;DHT22;6256;63.808;20.336;2022-10-16T06:01:30;4.30;99.90
12384;DHT22;6256;63.808;20.336;2022-10-16T06:03:57;4.30;99.90
12384;DHT22;6256;63.808;20.336;2022-10-16T06:06:26;4.40;99.90
12384;DHT22;6256;63.808;20.336;2022-10-16T06:08:53;4.40;99.90
12384;DHT22;6256;63.808;20.336;2022-10-16T06:13:57;4.50;99.90
12384;DHT22;6256;63.808;20.336;2022-10-16T06:16:24;4.60;99.90
12384;DHT22;6256;63.808;20.336;2022-10-16T06:18:52;4.70;99.90
12384;DHT22;6256;63.808;20.336;2022-10-16T06:21:21;4.70;99.90
12384;DHT22;6256;63.808;20.336;2022-10-16T06:23:47;4.80;99.90
12384;DHT22;6256;63.808;20.336;2022-10-16T06:26:16;4.90;99.90
12384;DHT22;6256;63.808;20.336;2022-10-16T06:28:42;4.90;99.90
12384;DHT22;6256;63.808;20.336;2022-10-16T06:31:09;5.00;99.90
12384;DHT22;6256;63.808;20.336;2022-10-16T06:33:36;5.00;99.90
12384;DHT22;6256;63.808;20.336;2022-10-16T06:36:04;5.10;99.90
12384;DHT22;6256;63.808;20.336;2022-10-16T06:38:31;5.10;99.90
12384;DHT22;6256;63.808;20.336;2022-10-16T06:40:57;5.20;99.90
12384;DHT22;6256;63.808;20.336;2022-10-16T06:43:23;5.20;99.90
12384;DHT22;6256;63.808;20.336;2022-10-16T06:48:23;5.30;99.90
12384;DHT22;6256;63.808;20.336;2022-10-16T06:51:03;5.30;99.90
12384;DHT22;6256;63.808;20.336;2022-10-16T06:53:32;5.30;99.90
12384;DHT22;6256;63.808;20.336;2022-10-16T06:55:57;5.40;99.90
12384;DHT22;6256;63.808;20.336;2022-10-16T06:58:23;5.40;99.90
12384;DHT22;6256;63.808;20.336;2022-10-16T07:00:55;5.40;99.90
12384;DHT22;6256;63.808;20.336;2022-10-16T07:03:21;5.40;99.90
12384;DHT22;6256;63.808;20.336;2022-10-16T07:05:47;5.50;99.90
12384;DHT22;6256;63.808;20.336;2022-10-16T07:08:13;5.50;99.90
12384;DHT22;6256;63.808;20.336;2022-10-16T07:10:38;5.50;99.90
12384;DHT22;6256;63.808;20.336;2022-10-16T07:13:04;5.50;99.90
12384;DHT22;6256;63.808;20.336;2022-10-16T07:15:30;5.50;99.90
12384;DHT22;6256;63.808;20.336;2022-10-16T07:17:56;5.60;99.90
12384;DHT22;6256;63.808;20.336;2022-10-16T07:20:22;5.60;99.90
12384;DHT22;6256;63.808;20.336;2022-10-16T07:22:48;5.60;99.90
12384;DHT22;6256;63.808;20.336;2022-10-16T07:25:13;5.60;99.90
12384;DHT22;6256;63.808;20.336;2022-10-16T07:27:39;5.60;99.90
12384;DHT22;6256;63.808;20.336;2022-10-16T07:30:05;5.60;99.90
12384;DHT22;6256;63.808;20.336;2022-10-16T07:32:32;5.60;99.90
12384;DHT22;6256;63.808;20.336;2022-10-16T07:34:57;5.60;99.90
12384;DHT22;6256;63.808;20.336;2022-10-16T07:37:23;5.60;99.90
12384;DHT22;6256;63.808;20.336;2022-10-16T07:39:49;5.60;99.90
12384;DHT22;6256;63.808;20.336;2022-10-16T07:42:15;5.70;99.90
12384;DHT22;6256;63.808;20.336;2022-10-16T07:44:40;5.70;99.90
12384;DHT22;6256;63.808;20.336;2022-10-16T07:47:07;5.70;99.90
12384;DHT22;6256;63.808;20.336;2022-10-16T07:49:32;5.70;99.90
12384;DHT22;6256;63.808;20.336;2022-10-16T07:51:58;5.70;99.90
12384;DHT22;6256;63.808;20.336;2022-10-16T07:54:24;5.70;99.90
12384;DHT22;6256;63.808;20.336;2022-10-16T07:56:49;5.70;99.90
12384;DHT22;6256;63.808;20.336;2022-10-16T07:59:15;5.70;99.90
12384;DHT22;6256;63.808;20.336;2022-10-16T08:01:41;5.70;99.90
12384;DHT22;6256;63.808;20.336;2022-10-16T08:04:11;5.80;99.90
12384;DHT22;6256;63.808;20.336;2022-10-16T08:06:38;5.80;99.90
12384;DHT22;6256;63.808;20.336;2022-10-16T08:09:05;5.80;99.90
12384;DHT22;6256;63.808;20.336;2022-10-16T08:11:31;5.80;99.90
12384;DHT22;6256;63.808;20.336;2022-10-16T08:13:57;5.90;99.90
12384;DHT22;6256;63.808;20.336;2022-10-16T08:16:23;5.90;99.90
12384;DHT22;6256;63.808;20.336;2022-10-16T08:18:49;5.90;99.90
12384;DHT22;6256;63.808;20.336;2022-10-16T08:21:18;6.00;99.90
12384;DHT22;6256;63.808;20.336;2022-10-16T08:23:44;6.00;99.90
12384;DHT22;6256;63.808;20.336;2022-10-16T08:26:11;6.00;99.90
12384;DHT22;6256;63.808;20.336;2022-10-16T08:28:37;6.00;99.90
12384;DHT22;6256;63.808;20.336;2022-10-16T08:31:11;6.00;99.90
12384;DHT22;6256;63.808;20.336;2022-10-16T08:33:38;6.10;99.90
12384;DHT22;6256;63.808;20.336;2022-10-16T08:36:05;6.10;99.90
12384;DHT22;6256;63.808;20.336;2022-10-16T08:38:32;6.10;99.90
12384;DHT22;6256;63.808;20.336;2022-10-16T08:49:12;6.30;99.90
12384;DHT22;6256;63.808;20.336;2022-10-16T08:51:41;6.30;99.90
12384;DHT22;6256;63.808;20.336;2022-10-16T08:56:48;6.30;99.90
12384;DHT22;6256;63.808;20.336;2022-10-16T08:59:16;6.40;99.90
12384;DHT22;6256;63.808;20.336;2022-10-16T09:01:45;6.40;99.90
12384;DHT22;6256;63.808;20.336;2022-10-16T09:07:06;6.60;99.90
12384;DHT22;6256;63.808;20.336;2022-10-16T09:10:11;6.70;99.90
12384;DHT22;6256;63.808;20.336;2022-10-16T09:12:53;6.70;99.90
12384;DHT22;6256;63.808;20.336;2022-10-16T09:23:30;7.10;99.90
12384;DHT22;6256;63.808;20.336;2022-10-16T09:25:58;7.20;99.90
12384;DHT22;6256;63.808;20.336;2022-10-16T09:28:25;7.40;99.90
12384;DHT22;6256;63.808;20.336;2022-10-16T09:30:51;7.70;99.90
12384;DHT22;6256;63.808;20.336;2022-10-16T09:33:22;8.00;99.90
12384;DHT22;6256;63.808;20.336;2022-10-16T09:35:53;8.50;99.90
12384;DHT22;6256;63.808;20.336;2022-10-16T09:38:29;9.00;99.90
12384;DHT22;6256;63.808;20.336;2022-10-16T09:40:57;9.30;99.90
12384;DHT22;6256;63.808;20.336;2022-10-16T09:46:26;9.40;99.90
12384;DHT22;6256;63.808;20.336;2022-10-16T09:48:59;9.40;99.90
12384;DHT22;6256;63.808;20.336;2022-10-16T09:51:35;9.50;99.90
12384;DHT22;6256;63.808;20.336;2022-10-16T09:56:37;9.60;99.90
12384;DHT22;6256;63.808;20.336;2022-10-16T09:59:31;9.70;99.90
12384;DHT22;6256;63.808;20.336;2022-10-16T10:02:11;9.70;99.90
12384;DHT22;6256;63.808;20.336;2022-10-16T10:04:41;9.80;99.90
12384;DHT22;6256;63.808;20.336;2022-10-16T10:07:18;9.80;99.90
12384;DHT22;6256;63.808;20.336;2022-10-16T10:12:21;9.90;99.90
12384;DHT22;6256;63.808;20.336;2022-10-16T10:14:50;10.00;99.90
12384;DHT22;6256;63.808;20.336;2022-10-16T10:17:20;10.10;99.90
12384;DHT22;6256;63.808;20.336;2022-10-16T10:36:08;10.10;99.90
12384;DHT22;6256;63.808;20.336;2022-10-16T10:38:43;10.20;99.90
12384;DHT22;6256;63.808;20.336;2022-10-16T10:44:11;10.40;99.90
12384;DHT22;6256;63.808;20.336;2022-10-16T10:47:08;10.40;99.90
12384;DHT22;6256;63.808;20.336;2022-10-16T10:49:34;10.50;99.90
12384;DHT22;6256;63.808;20.336;2022-10-16T10:55:38;10.30;99.90
12384;DHT22;6256;63.808;20.336;2022-10-16T11:01:10;10.30;99.90
12384;DHT22;6256;63.808;20.336;2022-10-16T11:09:24;10.00;99.90
12384;DHT22;6256;63.808;20.336;2022-10-16T11:12:07;10.00;99.90
12384;DHT22;6256;63.808;20.336;2022-10-16T11:14:43;9.90;99.90
12384;DHT22;6256;63.808;20.336;2022-10-16T11:17:19;10.00;99.90
12384;DHT22;6256;63.808;20.336;2022-10-16T11:22:35;10.30;99.90
12384;DHT22;6256;63.808;20.336;2022-10-16T11:30:27;10.50;99.90
12384;DHT22;6256;63.808;20.336;2022-10-16T11:38:02;10.50;99.90
12384;DHT22;6256;63.808;20.336;2022-10-16T11:40:34;10.70;99.90
12384;DHT22;6256;63.808;20.336;2022-10-16T11:43:25;10.80;99.90
12384;DHT22;6256;63.808;20.336;2022-10-16T11:45:55;10.90;99.90
12384;DHT22;6256;63.808;20.336;2022-10-16T11:48:33;10.90;99.90
12384;DHT22;6256;63.808;20.336;2022-10-16T11:53:53;10.70;99.90
12384;DHT22;6256;63.808;20.336;2022-10-16T11:56:21;10.60;99.90
12384;DHT22;6256;63.808;20.336;2022-10-16T11:59:03;10.50;99.90
12384;DHT22;6256;63.808;20.336;2022-10-16T12:04:25;10.40;99.90
12384;DHT22;6256;63.808;20.336;2022-10-16T12:07:01;10.30;99.90
12384;DHT22;6256;63.808;20.336;2022-10-16T12:09:30;10.40;99.90
12384;DHT22;6256;63.808;20.336;2022-10-16T12:11:59;10.40;99.90
12384;DHT22;6256;63.808;20.336;2022-10-16T12:16:58;10.30;99.90
12384;DHT22;6256;63.808;20.336;2022-10-16T12:19:29;10.30;99.90
12384;DHT22;6256;63.808;20.336;2022-10-16T12:21:57;10.20;99.90
12384;DHT22;6256;63.808;20.336;2022-10-16T12:24:33;10.10;99.90
12384;DHT22;6256;63.808;20.336;2022-10-16T12:27:00;10.10;99.90
12384;DHT22;6256;63.808;20.336;2022-10-16T12:31:58;10.10;99.90
12384;DHT22;6256;63.808;20.336;2022-10-16T12:37:06;10.20;99.90
12384;DHT22;6256;63.808;20.336;2022-10-16T12:39:34;10.20;99.90
12384;DHT22;6256;63.808;20.336;2022-10-16T12:42:04;10.10;99.90
12384;DHT22;6256;63.808;20.336;2022-10-16T12:44:35;10.20;99.90
12384;DHT22;6256;63.808;20.336;2022-10-16T12:47:02;10.10;99.90
12384;DHT22;6256;63.808;20.336;2022-10-16T12:51:53;10.20;99.90
12384;DHT22;6256;63.808;20.336;2022-10-16T13:08:25;10.00;99.90
12384;DHT22;6256;63.808;20.336;2022-10-16T13:13:54;10.00;99.90
12384;DHT22;6256;63.808;20.336;2022-10-16T13:22:03;10.00;99.90
12384;DHT22;6256;63.808;20.336;2022-10-16T13:27:26;10.10;99.90
12384;DHT22;6256;63.808;20.336;2022-10-16T13:30:16;10.20;99.90
12384;DHT22;6256;63.808;20.336;2022-10-16T13:32:48;10.20;99.90
12384;DHT22;6256;63.808;20.336;2022-10-16T13:35:26;10.20;99.90
12384;DHT22;6256;63.808;20.336;2022-10-16T13:38:45;10.10;99.90
12384;DHT22;6256;63.808;20.336;2022-10-16T13:43:27;10.00;99.90
12384;DHT22;6256;63.808;20.336;2022-10-16T13:46:00;10.00;99.90
12384;DHT22;6256;63.808;20.336;2022-10-16T13:48:27;10.00;99.90
12384;DHT22;6256;63.808;20.336;2022-10-16T13:51:05;10.00;99.90
12384;DHT22;6256;63.808;20.336;2022-10-16T13:53:33;9.90;99.90
12384;DHT22;6256;63.808;20.336;2022-10-16T13:56:00;9.90;99.90
12384;DHT22;6256;63.808;20.336;2022-10-16T13:58:27;9.90;99.90
12384;DHT22;6256;63.808;20.336;2022-10-16T14:01:02;9.80;99.90
12384;DHT22;6256;63.808;20.336;2022-10-16T14:03:29;9.80;99.90
12384;DHT22;6256;63.808;20.336;2022-10-16T14:06:00;9.80;99.90
12384;DHT22;6256;63.808;20.336;2022-10-16T14:08:30;9.80;99.90
12384;DHT22;6256;63.808;20.336;2022-10-16T14:10:59;9.80;99.90
12384;DHT22;6256;63.808;20.336;2022-10-16T14:13:44;9.70;99.90
12384;DHT22;6256;63.808;20.336;2022-10-16T14:16:17;9.70;99.90
12384;DHT22;6256;63.808;20.336;2022-10-16T14:18:49;9.70;99.90
12384;DHT22;6256;63.808;20.336;2022-10-16T14:21:16;9.60;99.90
12384;DHT22;6256;63.808;20.336;2022-10-16T14:23:42;9.60;99.90
12384;DHT22;6256;63.808;20.336;2022-10-16T14:28:35;9.60;99.90
12384;DHT22;6256;63.808;20.336;2022-10-16T14:31:17;9.60;99.90
12384;DHT22;6256;63.808;20.336;2022-10-16T14:33:47;9.70;99.90
12384;DHT22;6256;63.808;20.336;2022-10-16T14:36:14;9.80;99.90
12384;DHT22;6256;63.808;20.336;2022-10-16T14:39:17;9.70;99.90
12384;DHT22;6256;63.808;20.336;2022-10-16T14:41:47;9.80;99.90
12384;DHT22;6256;63.808;20.336;2022-10-16T14:44:13;9.70;99.90
12384;DHT22;6256;63.808;20.336;2022-10-16T14:46:43;9.50;99.90
12384;DHT22;6256;63.808;20.336;2022-10-16T14:51:35;9.30;99.90
12384;DHT22;6256;63.808;20.336;2022-10-16T14:54:02;9.20;99.90
12384;DHT22;6256;63.808;20.336;2022-10-16T14:57:03;9.10;99.90
12384;DHT22;6256;63.808;20.336;2022-10-16T14:59:28;9.00;99.90
12384;DHT22;6256;63.808;20.336;2022-10-16T15:01:54;9.00;99.90
12384;DHT22;6256;63.808;20.336;2022-10-16T15:04:20;9.00;99.90
12384;DHT22;6256;63.808;20.336;2022-10-16T15:06:46;8.90;99.90
12384;DHT22;6256;63.808;20.336;2022-10-16T15:09:11;8.90;99.90
12384;DHT22;6256;63.808;20.336;2022-10-16T15:11:37;8.80;99.90
12384;DHT22;6256;63.808;20.336;2022-10-16T15:14:04;8.70;99.90
12384;DHT22;6256;63.808;20.336;2022-10-16T15:16:30;8.60;99.90
12384;DHT22;6256;63.808;20.336;2022-10-16T15:18:56;8.60;99.90
12384;DHT22;6256;63.808;20.336;2022-10-16T15:21:25;8.60;99.90
12384;DHT22;6256;63.808;20.336;2022-10-16T15:23:52;8.60;99.90
12384;DHT22;6256;63.808;20.336;2022-10-16T15:26:18;8.50;99.90
12384;DHT22;6256;63.808;20.336;2022-10-16T15:28:44;8.40;99.90
12384;DHT22;6256;63.808;20.336;2022-10-16T15:31:10;8.30;99.90
12384;DHT22;6256;63.808;20.336;2022-10-16T15:33:35;8.20;99.90
12384;DHT22;6256;63.808;20.336;2022-10-16T15:36:04;8.00;99.90
12384;DHT22;6256;63.808;20.336;2022-10-16T15:38:30;7.90;99.90
12384;DHT22;6256;63.808;20.336;2022-10-16T15:40:56;7.80;99.90
12384;DHT22;6256;63.808;20.336;2022-10-16T15:43:22;7.60;99.90
12384;DHT22;6256;63.808;20.336;2022-10-16T15:46:02;7.50;99.90
12384;DHT22;6256;63.808;20.336;2022-10-16T15:48:29;7.40;99.90
12384;DHT22;6256;63.808;20.336;2022-10-16T15:50:55;7.30;99.90
12384;DHT22;6256;63.808;20.336;2022-10-16T15:53:21;7.30;99.90
12384;DHT22;6256;63.808;20.336;2022-10-16T15:55:47;7.30;99.90
12384;DHT22;6256;63.808;20.336;2022-10-16T15:58:13;7.20;99.90
12384;DHT22;6256;63.808;20.336;2022-10-16T16:00:38;7.20;99.90
12384;DHT22;6256;63.808;20.336;2022-10-16T16:03:04;7.10;99.90
12384;DHT22;6256;63.808;20.336;2022-10-16T16:05:30;7.10;99.90
12384;DHT22;6256;63.808;20.336;2022-10-16T16:07:57;7.10;99.90
12384;DHT22;6256;63.808;20.336;2022-10-16T16:10:23;7.10;99.90
12384;DHT22;6256;63.808;20.336;2022-10-16T16:12:49;7.10;99.90
12384;DHT22;6256;63.808;20.336;2022-10-16T16:15:21;7.00;99.90
12384;DHT22;6256;63.808;20.336;2022-10-16T16:17:47;7.00;99.90
12384;DHT22;6256;63.808;20.336;2022-10-16T16:20:13;7.00;99.90
12384;DHT22;6256;63.808;20.336;2022-10-16T16:22:38;6.90;99.90
12384;DHT22;6256;63.808;20.336;2022-10-16T16:25:05;6.90;99.90
12384;DHT22;6256;63.808;20.336;2022-10-16T16:27:30;6.90;99.90
12384;DHT22;6256;63.808;20.336;2022-10-16T16:30:01;6.90;99.90
12384;DHT22;6256;63.808;20.336;2022-10-16T16:32:29;6.80;99.90
12384;DHT22;6256;63.808;20.336;2022-10-16T16:34:54;6.90;99.90
12384;DHT22;6256;63.808;20.336;2022-10-16T16:37:20;6.90;99.90
12384;DHT22;6256;63.808;20.336;2022-10-16T16:39:46;6.90;99.90
12384;DHT22;6256;63.808;20.336;2022-10-16T16:42:11;6.90;99.90
12384;DHT22;6256;63.808;20.336;2022-10-16T16:44:37;6.90;99.90
12384;DHT22;6256;63.808;20.336;2022-10-16T16:47:04;6.90;99.90
12384;DHT22;6256;63.808;20.336;2022-10-16T16:49:31;6.90;99.90
12384;DHT22;6256;63.808;20.336;2022-10-16T16:51:57;6.90;99.90
12384;DHT22;6256;63.808;20.336;2022-10-16T16:54:23;6.90;99.90
12384;DHT22;6256;63.808;20.336;2022-10-16T16:56:49;6.90;99.90
12384;DHT22;6256;63.808;20.336;2022-10-16T16:59:17;6.90;99.90
12384;DHT22;6256;63.808;20.336;2022-10-16T17:01:43;6.90;99.90
12384;DHT22;6256;63.808;20.336;2022-10-16T17:04:09;6.90;99.90
12384;DHT22;6256;63.808;20.336;2022-10-16T17:06:36;6.90;99.90
12384;DHT22;6256;63.808;20.336;2022-10-16T17:09:03;6.80;99.90
12384;DHT22;6256;63.808;20.336;2022-10-16T17:11:30;6.70;99.90
12384;DHT22;6256;63.808;20.336;2022-10-16T17:13:56;6.70;99.90
12384;DHT22;6256;63.808;20.336;2022-10-16T17:16:29;6.60;99.90
12384;DHT22;6256;63.808;20.336;2022-10-16T17:18:55;6.50;99.90
12384;DHT22;6256;63.808;20.336;2022-10-16T17:21:20;6.40;99.90
12384;DHT22;6256;63.808;20.336;2022-10-16T17:23:47;6.40;99.90
12384;DHT22;6256;63.808;20.336;2022-10-16T17:26:16;6.40;99.90
12384;DHT22;6256;63.808;20.336;2022-10-16T17:28:42;6.30;99.90
12384;DHT22;6256;63.808;20.336;2022-10-16T17:31:11;6.30;99.90
12384;DHT22;6256;63.808;20.336;2022-10-16T17:33:37;6.30;99.90
12384;DHT22;6256;63.808;20.336;2022-10-16T17:36:04;6.30;99.90
12384;DHT22;6256;63.808;20.336;2022-10-16T17:38:30;6.30;99.90
12384;DHT22;6256;63.808;20.336;2022-10-16T17:40:56;6.20;99.90
12384;DHT22;6256;63.808;20.336;2022-10-16T17:43:21;6.20;99.90
12384;DHT22;6256;63.808;20.336;2022-10-16T17:45:47;6.20;99.90
12384;DHT22;6256;63.808;20.336;2022-10-16T17:48:13;6.20;99.90
12384;DHT22;6256;63.808;20.336;2022-10-16T17:50:40;6.20;99.90
12384;DHT22;6256;63.808;20.336;2022-10-16T17:53:05;6.20;99.90
12384;DHT22;6256;63.808;20.336;2022-10-16T17:55:39;6.20;99.90
12384;DHT22;6256;63.808;20.336;2022-10-16T17:58:05;6.20;99.90
12384;DHT22;6256;63.808;20.336;2022-10-16T18:00:32;6.20;99.90
12384;DHT22;6256;63.808;20.336;2022-10-16T18:02:58;6.10;99.90
12384;DHT22;6256;63.808;20.336;2022-10-16T18:05:24;6.20;99.90
12384;DHT22;6256;63.808;20.336;2022-10-16T18:07:49;6.20;99.90
12384;DHT22;6256;63.808;20.336;2022-10-16T18:10:15;6.20;99.90
12384;DHT22;6256;63.808;20.336;2022-10-16T18:12:41;6.20;99.90
12384;DHT22;6256;63.808;20.336;2022-10-16T18:15:06;6.20;99.90
12384;DHT22;6256;63.808;20.336;2022-10-16T18:17:36;6.20;99.90
12384;DHT22;6256;63.808;20.336;2022-10-16T18:20:04;6.20;99.90
12384;DHT22;6256;63.808;20.336;2022-10-16T18:22:35;6.30;99.90
12384;DHT22;6256;63.808;20.336;2022-10-16T18:25:05;6.30;99.90
12384;DHT22;6256;63.808;20.336;2022-10-16T18:27:31;6.30;99.90
12384;DHT22;6256;63.808;20.336;2022-10-16T18:29:57;6.30;99.90
12384;DHT22;6256;63.808;20.336;2022-10-16T18:32:24;6.30;99.90
12384;DHT22;6256;63.808;20.336;2022-10-16T18:34:50;6.30;99.90
12384;DHT22;6256;63.808;20.336;2022-10-16T18:37:16;6.20;99.90
12384;DHT22;6256;63.808;20.336;2022-10-16T18:39:45;6.30;99.90
12384;DHT22;6256;63.808;20.336;2022-10-16T18:42:13;6.30;99.90